sensor_id;sensor_type;location;lat;lon;timestamp;pressure;altitude;pressure_sealevel;temperature;humidity
85016;BME280;75339;50.216;20.512;2024-02-14T00:00:15;99354.64;;;3.19;75.25
85016;BME280;75339;50.216;20.512;2024-02-14T00:03:02;99352.55;;;3.20;75.56
85016;BME280;75339;50.216;20.512;2024-02-14T00:05:29;99351.36;;;3.22;75.06
85016;BME280;75339;50.216;20.512;2024-02-14T00:07:55;99356.75;;;3.22;75.31
85016;BME280;75339;50.216;20.512;2024-02-14T00:10:22;99352.41;;;3.22;75.27
85016;BME280;75339;50.216;20.512;2024-02-14T00:12:50;99353.27;;;3.21;75.38
85016;BME280;75339;50.216;20.512;2024-02-14T00:15:17;99357.42;;;3.20;75.28
85016;BME280;75339;50.216;20.512;2024-02-14T00:17:44;99356.90;;;3.19;75.16
85016;BME280;75339;50.216;20.512;2024-02-14T00:20:11;99350.56;;;3.12;75.27
85016;BME280;75339;50.216;20.512;2024-02-14T00:22:39;99370.49;;;3.22;74.78
85016;BME280;75339;50.216;20.512;2024-02-14T00:25:06;99370.34;;;3.24;74.80
85016;BME280;75339;50.216;20.512;2024-02-14T00:27:33;99371.76;;;3.27;74.46
85016;BME280;75339;50.216;20.512;2024-02-14T00:30:00;99377.15;;;3.28;74.55
85016;BME280;75339;50.216;20.512;2024-02-14T00:32:27;99376.63;;;3.28;74.31
85016;BME280;75339;50.216;20.512;2024-02-14T00:34:54;99346.91;;;3.11;74.71
85016;BME280;75339;50.216;20.512;2024-02-14T00:37:21;99375.24;;;3.26;74.68
85016;BME280;75339;50.216;20.512;2024-02-14T00:39:48;99375.74;;;3.24;75.20
85016;BME280;75339;50.216;20.512;2024-02-14T00:42:16;99376.42;;;3.22;75.05
85016;BME280;75339;50.216;20.512;2024-02-14T00:44:43;99381.45;;;3.21;75.38
85016;BME280;75339;50.216;20.512;2024-02-14T00:47:09;99384.40;;;3.19;75.45
85016;BME280;75339;50.216;20.512;2024-02-14T00:49:36;99384.73;;;3.18;75.27
85016;BME280;75339;50.216;20.512;2024-02-14T00:52:03;99385.43;;;3.18;75.30
85016;BME280;75339;50.216;20.512;2024-02-14T00:54:30;99382.64;;;3.17;75.47
85016;BME280;75339;50.216;20.512;2024-02-14T00:56:57;99385.40;;;3.16;75.58
85016;BME280;75339;50.216;20.512;2024-02-14T00:59:26;99382.61;;;3.15;75.59
85016;BME280;75339;50.216;20.512;2024-02-14T01:01:54;99383.66;;;3.16;75.49
85016;BME280;75339;50.216;20.512;2024-02-14T01:04:20;99385.42;;;3.17;75.36
85016;BME280;75339;50.216;20.512;2024-02-14T01:06:47;99387.34;;;3.18;75.21
85016;BME280;75339;50.216;20.512;2024-02-14T01:09:16;99360.25;;;3.02;74.99
85016;BME280;75339;50.216;20.512;2024-02-14T01:11:43;99389.98;;;3.20;74.71
85016;BME280;75339;50.216;20.512;2024-02-14T01:14:10;99389.64;;;3.22;74.45
85016;BME280;75339;50.216;20.512;2024-02-14T01:16:44;99389.66;;;3.24;74.27
85016;BME280;75339;50.216;20.512;2024-02-14T01:19:11;99389.52;;;3.27;74.10
85016;BME280;75339;50.216;20.512;2024-02-14T01:21:38;99381.66;;;3.25;73.88
85016;BME280;75339;50.216;20.512;2024-02-14T01:24:05;99384.98;;;3.29;74.18
85016;BME280;75339;50.216;20.512;2024-02-14T01:26:31;99383.08;;;3.31;74.14
85016;BME280;75339;50.216;20.512;2024-02-14T01:29:01;99385.88;;;3.32;73.99
85016;BME280;75339;50.216;20.512;2024-02-14T01:31:28;99384.48;;;3.32;73.39
85016;BME280;75339;50.216;20.512;2024-02-14T01:33:56;99386.39;;;3.31;73.49
85016;BME280;75339;50.216;20.512;2024-02-14T01:36:26;99384.64;;;3.29;73.47
85016;BME280;75339;50.216;20.512;2024-02-14T01:38:55;99383.95;;;3.28;73.64
85016;BME280;75339;50.216;20.512;2024-02-14T01:41:22;99379.56;;;3.23;73.70
85016;BME280;75339;50.216;20.512;2024-02-14T01:43:49;99384.83;;;3.27;73.38
85016;BME280;75339;50.216;20.512;2024-02-14T01:46:17;99385.52;;;3.26;73.69
85016;BME280;75339;50.216;20.512;2024-02-14T01:48:45;99384.27;;;3.24;73.77
85016;BME280;75339;50.216;20.512;2024-02-14T01:51:12;99388.23;;;3.19;74.15
85016;BME280;75339;50.216;20.512;2024-02-14T01:53:40;99385.59;;;3.16;74.35
85016;BME280;75339;50.216;20.512;2024-02-14T01:56:07;99390.29;;;3.16;73.56
85016;BME280;75339;50.216;20.512;2024-02-14T01:58:35;99391.36;;;3.18;73.49
85016;BME280;75339;50.216;20.512;2024-02-14T02:01:02;99391.70;;;3.18;73.79
85016;BME280;75339;50.216;20.512;2024-02-14T02:03:30;99391.86;;;3.17;73.53
85016;BME280;75339;50.216;20.512;2024-02-14T02:05:59;99344.13;;;2.88;73.96
85016;BME280;75339;50.216;20.512;2024-02-14T02:08:26;99394.45;;;3.15;73.78
85016;BME280;75339;50.216;20.512;2024-02-14T02:10:53;99394.42;;;3.13;73.65
85016;BME280;75339;50.216;20.512;2024-02-14T02:13:21;99398.95;;;3.12;73.77
85016;BME280;75339;50.216;20.512;2024-02-14T02:15:49;99398.94;;;3.11;73.71
85016;BME280;75339;50.216;20.512;2024-02-14T02:18:16;99398.05;;;3.10;73.80
85016;BME280;75339;50.216;20.512;2024-02-14T02:20:45;99396.48;;;3.09;73.80
85016;BME280;75339;50.216;20.512;2024-02-14T02:23:13;99398.39;;;3.09;73.54
85016;BME280;75339;50.216;20.512;2024-02-14T02:25:43;99392.30;;;3.09;73.54
85016;BME280;75339;50.216;20.512;2024-02-14T02:28:11;99391.77;;;3.07;73.67
85016;BME280;75339;50.216;20.512;2024-02-14T02:30:38;99393.30;;;3.04;74.05
85016;BME280;75339;50.216;20.512;2024-02-14T02:33:05;99395.55;;;3.02;73.78
85016;BME280;75339;50.216;20.512;2024-02-14T02:35:32;99393.10;;;3.01;73.75
85016;BME280;75339;50.216;20.512;2024-02-14T02:38:00;99393.11;;;3.02;73.40
85016;BME280;75339;50.216;20.512;2024-02-14T02:40:26;99393.12;;;3.03;73.42
85016;BME280;75339;50.216;20.512;2024-02-14T02:42:54;99393.63;;;3.02;73.44
85016;BME280;75339;50.216;20.512;2024-02-14T02:45:21;99391.20;;;2.99;73.68
85016;BME280;75339;50.216;20.512;2024-02-14T02:47:48;99394.65;;;2.97;73.78
85016;BME280;75339;50.216;20.512;2024-02-14T02:50:18;99396.38;;;2.96;73.72
85016;BME280;75339;50.216;20.512;2024-02-14T02:52:48;99398.44;;;2.93;74.46
85016;BME280;75339;50.216;20.512;2024-02-14T02:55:17;99397.71;;;2.90;74.15
85016;BME280;75339;50.216;20.512;2024-02-14T02:57:44;99396.13;;;2.89;74.05
85016;BME280;75339;50.216;20.512;2024-02-14T03:00:12;99398.03;;;2.89;73.94
85016;BME280;75339;50.216;20.512;2024-02-14T03:02:42;99402.73;;;2.88;74.34
85016;BME280;75339;50.216;20.512;2024-02-14T03:05:13;99407.07;;;2.88;74.15
85016;BME280;75339;50.216;20.512;2024-02-14T03:07:49;99409.33;;;2.87;74.53
85016;BME280;75339;50.216;20.512;2024-02-14T03:10:17;99414.70;;;2.85;74.36
85016;BME280;75339;50.216;20.512;2024-02-14T03:12:46;99412.42;;;2.84;74.59
85016;BME280;75339;50.216;20.512;2024-02-14T03:15:14;99414.48;;;2.82;74.69
85016;BME280;75339;50.216;20.512;2024-02-14T03:17:41;99417.27;;;2.81;75.03
85016;BME280;75339;50.216;20.512;2024-02-14T03:20:12;99419.52;;;2.80;74.87
85016;BME280;75339;50.216;20.512;2024-02-14T03:22:40;99417.95;;;2.80;74.73
85016;BME280;75339;50.216;20.512;2024-02-14T03:25:16;99419.52;;;2.80;74.99
85016;BME280;75339;50.216;20.512;2024-02-14T03:27:43;99421.08;;;2.80;75.03
85016;BME280;75339;50.216;20.512;2024-02-14T03:30:16;99423.85;;;2.79;74.98
85016;BME280;75339;50.216;20.512;2024-02-14T03:32:44;99425.41;;;2.79;75.19
85016;BME280;75339;50.216;20.512;2024-02-14T03:35:11;99427.83;;;2.77;75.01
85016;BME280;75339;50.216;20.512;2024-02-14T03:37:43;99429.39;;;2.77;74.98
85016;BME280;75339;50.216;20.512;2024-02-14T03:40:14;99430.95;;;2.77;75.31
85016;BME280;75339;50.216;20.512;2024-02-14T03:42:41;99431.63;;;2.75;75.30
85016;BME280;75339;50.216;20.512;2024-02-14T03:45:10;99431.80;;;2.73;75.28
85016;BME280;75339;50.216;20.512;2024-02-14T03:47:37;99432.84;;;2.72;74.98
85016;BME280;75339;50.216;20.512;2024-02-14T03:50:08;99433.37;;;2.73;75.04
85016;BME280;75339;50.216;20.512;2024-02-14T03:52:35;99436.50;;;2.72;75.15
85016;BME280;75339;50.216;20.512;2024-02-14T03:55:03;99439.79;;;2.71;75.39
85016;BME280;75339;50.216;20.512;2024-02-14T03:57:31;99437.70;;;2.71;75.06
85016;BME280;75339;50.216;20.512;2024-02-14T04:00:00;99438.06;;;2.72;75.26
85016;BME280;75339;50.216;20.512;2024-02-14T04:02:30;99435.62;;;2.75;75.10
85016;BME280;75339;50.216;20.512;2024-02-14T04:04:58;99440.52;;;2.77;75.35
85016;BME280;75339;50.216;20.512;2024-02-14T04:07:28;99441.59;;;2.79;75.11
85016;BME280;75339;50.216;20.512;2024-02-14T04:09:56;99444.05;;;2.81;75.06
85016;BME280;75339;50.216;20.512;2024-02-14T04:12:28;99444.23;;;2.82;75.33
85016;BME280;75339;50.216;20.512;2024-02-14T04:14:55;99442.69;;;2.83;75.13
85016;BME280;75339;50.216;20.512;2024-02-14T04:17:22;99447.93;;;2.86;75.09
85016;BME280;75339;50.216;20.512;2024-02-14T04:19:50;99444.47;;;2.87;74.95
85016;BME280;75339;50.216;20.512;2024-02-14T04:22:20;99449.52;;;2.87;74.83
85016;BME280;75339;50.216;20.512;2024-02-14T04:24:47;99449.34;;;2.87;75.07
85016;BME280;75339;50.216;20.512;2024-02-14T04:27:14;99450.71;;;2.85;75.14
85016;BME280;75339;50.216;20.512;2024-02-14T04:29:45;99451.05;;;2.84;74.92
85016;BME280;75339;50.216;20.512;2024-02-14T04:32:13;99455.37;;;2.82;74.95
85016;BME280;75339;50.216;20.512;2024-02-14T04:34:40;99456.40;;;2.80;74.91
85016;BME280;75339;50.216;20.512;2024-02-14T04:37:08;99458.77;;;2.75;75.04
85016;BME280;75339;50.216;20.512;2024-02-14T04:39:36;99462.50;;;2.65;75.37
85016;BME280;75339;50.216;20.512;2024-02-14T04:42:03;99457.67;;;2.55;75.74
85016;BME280;75339;50.216;20.512;2024-02-14T04:44:34;99456.52;;;2.47;75.93
85016;BME280;75339;50.216;20.512;2024-02-14T04:47:01;99455.77;;;2.41;76.07
85016;BME280;75339;50.216;20.512;2024-02-14T04:49:31;99457.27;;;2.36;76.09
85016;BME280;75339;50.216;20.512;2024-02-14T04:51:58;99457.91;;;2.32;75.99
85016;BME280;75339;50.216;20.512;2024-02-14T04:54:24;99470.21;;;2.30;75.77
85016;BME280;75339;50.216;20.512;2024-02-14T04:56:52;99463.20;;;2.26;75.87
85016;BME280;75339;50.216;20.512;2024-02-14T04:59:19;99466.45;;;2.22;76.07
85016;BME280;75339;50.216;20.512;2024-02-14T05:01:46;99471.10;;;2.17;76.05
85016;BME280;75339;50.216;20.512;2024-02-14T05:04:13;99465.13;;;2.13;76.50
85016;BME280;75339;50.216;20.512;2024-02-14T05:06:40;99468.17;;;2.07;77.03
85016;BME280;75339;50.216;20.512;2024-02-14T05:09:08;99468.13;;;2.04;77.13
85016;BME280;75339;50.216;20.512;2024-02-14T05:11:38;99470.23;;;2.06;77.19
85016;BME280;75339;50.216;20.512;2024-02-14T05:14:05;99473.92;;;2.09;77.40
85016;BME280;75339;50.216;20.512;2024-02-14T05:16:32;99478.16;;;2.13;77.34
85016;BME280;75339;50.216;20.512;2024-02-14T05:18:59;99480.98;;;2.16;77.14
85016;BME280;75339;50.216;20.512;2024-02-14T05:21:27;99481.88;;;2.18;76.80
85016;BME280;75339;50.216;20.512;2024-02-14T05:23:54;99483.64;;;2.19;77.08
85016;BME280;75339;50.216;20.512;2024-02-14T05:26:21;99483.77;;;2.16;77.45
85016;BME280;75339;50.216;20.512;2024-02-14T05:28:48;99481.68;;;2.16;77.64
85016;BME280;75339;50.216;20.512;2024-02-14T05:31:18;99481.49;;;2.15;77.42
85016;BME280;75339;50.216;20.512;2024-02-14T05:33:47;99483.23;;;2.14;77.52
85016;BME280;75339;50.216;20.512;2024-02-14T05:36:14;99485.13;;;2.14;77.63
85016;BME280;75339;50.216;20.512;2024-02-14T05:38:41;99482.48;;;2.12;77.74
85016;BME280;75339;50.216;20.512;2024-02-14T05:41:07;99489.96;;;2.11;77.64
85016;BME280;75339;50.216;20.512;2024-02-14T05:43:34;99465.80;;;1.99;77.53
85016;BME280;75339;50.216;20.512;2024-02-14T05:46:01;99495.03;;;2.14;77.45
85016;BME280;75339;50.216;20.512;2024-02-14T05:48:31;99497.29;;;2.13;77.32
85016;BME280;75339;50.216;20.512;2024-02-14T05:50:58;99493.66;;;2.14;77.43
85016;BME280;75339;50.216;20.512;2024-02-14T05:53:25;99501.88;;;2.18;77.17
85016;BME280;75339;50.216;20.512;2024-02-14T05:55:51;99506.27;;;2.23;77.10
85016;BME280;75339;50.216;20.512;2024-02-14T05:58:21;99507.36;;;2.26;76.77
85016;BME280;75339;50.216;20.512;2024-02-14T06:00:48;99506.52;;;2.29;77.04
85016;BME280;75339;50.216;20.512;2024-02-14T06:03:15;99508.14;;;2.32;76.75
85016;BME280;75339;50.216;20.512;2024-02-14T06:05:44;99505.90;;;2.33;76.46
85016;BME280;75339;50.216;20.512;2024-02-14T06:08:11;99505.90;;;2.33;76.44
85016;BME280;75339;50.216;20.512;2024-02-14T06:10:37;99502.69;;;2.27;76.56
85016;BME280;75339;50.216;20.512;2024-02-14T06:13:06;99516.62;;;2.29;76.64
85016;BME280;75339;50.216;20.512;2024-02-14T06:15:33;99515.01;;;2.26;76.71
85016;BME280;75339;50.216;20.512;2024-02-14T06:18:00;99515.32;;;2.24;76.49
85016;BME280;75339;50.216;20.512;2024-02-14T06:20:27;99515.14;;;2.23;76.80
85016;BME280;75339;50.216;20.512;2024-02-14T06:22:57;99515.48;;;2.24;76.83
85016;BME280;75339;50.216;20.512;2024-02-14T06:25:24;99518.59;;;2.22;76.81
85016;BME280;75339;50.216;20.512;2024-02-14T06:27:51;99463.39;;;1.88;76.69
85016;BME280;75339;50.216;20.512;2024-02-14T06:30:17;99519.43;;;2.20;77.30
85016;BME280;75339;50.216;20.512;2024-02-14T06:32:44;99518.84;;;2.27;76.93
85016;BME280;75339;50.216;20.512;2024-02-14T06:35:11;99519.21;;;2.28;76.82
85016;BME280;75339;50.216;20.512;2024-02-14T06:37:38;99520.39;;;2.26;76.74
85016;BME280;75339;50.216;20.512;2024-02-14T06:40:05;99520.38;;;2.25;76.71
85016;BME280;75339;50.216;20.512;2024-02-14T06:42:35;99524.60;;;2.29;76.90
85016;BME280;75339;50.216;20.512;2024-02-14T06:45:02;99517.39;;;2.34;76.56
85016;BME280;75339;50.216;20.512;2024-02-14T06:47:29;99518.44;;;2.48;76.50
85016;BME280;75339;50.216;20.512;2024-02-14T06:49:56;99521.65;;;2.67;76.10
85016;BME280;75339;50.216;20.512;2024-02-14T06:52:24;99520.69;;;2.88;75.66
85016;BME280;75339;50.216;20.512;2024-02-14T06:54:53;99517.80;;;3.10;75.05
85016;BME280;75339;50.216;20.512;2024-02-14T06:57:20;99517.36;;;3.18;74.64
85016;BME280;75339;50.216;20.512;2024-02-14T06:59:46;99517.48;;;3.65;74.73
85016;BME280;75339;50.216;20.512;2024-02-14T07:02:16;99515.12;;;4.53;73.54
85016;BME280;75339;50.216;20.512;2024-02-14T07:04:43;99507.75;;;5.47;71.00
85016;BME280;75339;50.216;20.512;2024-02-14T07:07:09;99506.23;;;6.07;68.35
85016;BME280;75339;50.216;20.512;2024-02-14T07:09:36;99505.14;;;6.31;67.01
85016;BME280;75339;50.216;20.512;2024-02-14T07:12:05;99505.83;;;6.36;66.33
85016;BME280;75339;50.216;20.512;2024-02-14T07:14:32;99520.35;;;6.35;66.06
85016;BME280;75339;50.216;20.512;2024-02-14T07:16:59;99511.04;;;6.53;65.94
85016;BME280;75339;50.216;20.512;2024-02-14T07:19:25;99510.39;;;6.86;65.15
85016;BME280;75339;50.216;20.512;2024-02-14T07:21:52;99508.27;;;7.27;64.26
85016;BME280;75339;50.216;20.512;2024-02-14T07:24:19;99511.77;;;7.54;63.17
85016;BME280;75339;50.216;20.512;2024-02-14T07:26:46;99508.23;;;7.62;62.38
85016;BME280;75339;50.216;20.512;2024-02-14T07:29:13;99509.30;;;7.57;62.32
85016;BME280;75339;50.216;20.512;2024-02-14T07:31:39;99508.71;;;7.66;61.84
85016;BME280;75339;50.216;20.512;2024-02-14T07:34:06;99511.35;;;7.87;61.22
85016;BME280;75339;50.216;20.512;2024-02-14T07:36:33;99507.14;;;8.07;60.54
85016;BME280;75339;50.216;20.512;2024-02-14T07:39:00;99507.91;;;8.19;60.37
85016;BME280;75339;50.216;20.512;2024-02-14T07:41:27;99508.30;;;8.16;60.09
85016;BME280;75339;50.216;20.512;2024-02-14T07:43:56;99511.20;;;8.04;60.19
85016;BME280;75339;50.216;20.512;2024-02-14T07:46:23;99509.17;;;7.95;60.32
85016;BME280;75339;50.216;20.512;2024-02-14T07:48:53;99508.02;;;8.28;59.68
85016;BME280;75339;50.216;20.512;2024-02-14T07:51:19;99504.38;;;8.59;58.68
85016;BME280;75339;50.216;20.512;2024-02-14T07:53:46;99506.20;;;8.69;58.28
85016;BME280;75339;50.216;20.512;2024-02-14T07:56:13;99504.34;;;8.63;58.05
85016;BME280;75339;50.216;20.512;2024-02-14T07:58:39;99506.80;;;8.61;58.27
85016;BME280;75339;50.216;20.512;2024-02-14T08:01:06;99500.64;;;8.77;57.34
85016;BME280;75339;50.216;20.512;2024-02-14T08:03:33;99507.19;;;8.88;56.17
85016;BME280;75339;50.216;20.512;2024-02-14T08:06:00;99504.33;;;8.63;56.56
85016;BME280;75339;50.216;20.512;2024-02-14T08:08:27;99506.88;;;8.84;56.31
85016;BME280;75339;50.216;20.512;2024-02-14T08:10:53;99504.64;;;8.96;55.09
85016;BME280;75339;50.216;20.512;2024-02-14T08:13:21;99510.71;;;8.73;55.17
85016;BME280;75339;50.216;20.512;2024-02-14T08:15:48;99512.38;;;8.30;56.58
85016;BME280;75339;50.216;20.512;2024-02-14T08:18:16;99514.19;;;8.05;57.00
85016;BME280;75339;50.216;20.512;2024-02-14T08:20:42;99510.23;;;7.74;56.64
85016;BME280;75339;50.216;20.512;2024-02-14T08:23:09;99514.54;;;7.62;57.19
85016;BME280;75339;50.216;20.512;2024-02-14T08:25:36;99519.20;;;7.43;56.91
85016;BME280;75339;50.216;20.512;2024-02-14T08:28:03;99516.61;;;7.06;57.82
85016;BME280;75339;50.216;20.512;2024-02-14T08:30:31;99517.77;;;6.83;59.12
85016;BME280;75339;50.216;20.512;2024-02-14T08:32:58;99519.05;;;6.65;59.52
85016;BME280;75339;50.216;20.512;2024-02-14T08:35:24;99516.67;;;6.93;59.42
85016;BME280;75339;50.216;20.512;2024-02-14T08:37:51;99510.67;;;8.01;57.75
85016;BME280;75339;50.216;20.512;2024-02-14T08:40:18;99506.11;;;9.03;55.04
85016;BME280;75339;50.216;20.512;2024-02-14T08:42:50;99503.62;;;9.20;53.96
85016;BME280;75339;50.216;20.512;2024-02-14T08:45:18;99506.40;;;9.34;53.68
85016;BME280;75339;50.216;20.512;2024-02-14T08:47:45;99507.92;;;9.38;52.96
85016;BME280;75339;50.216;20.512;2024-02-14T08:50:11;99507.16;;;9.18;52.70
85016;BME280;75339;50.216;20.512;2024-02-14T08:52:40;99508.27;;;9.50;52.31
85016;BME280;75339;50.216;20.512;2024-02-14T08:55:07;99503.01;;;10.05;50.44
85016;BME280;75339;50.216;20.512;2024-02-14T08:57:41;99500.69;;;10.29;48.64
85016;BME280;75339;50.216;20.512;2024-02-14T09:00:08;99502.71;;;10.34;47.18
85016;BME280;75339;50.216;20.512;2024-02-14T09:02:37;99504.56;;;10.17;47.78
85016;BME280;75339;50.216;20.512;2024-02-14T09:05:04;99505.35;;;9.58;47.56
85016;BME280;75339;50.216;20.512;2024-02-14T09:07:32;99506.19;;;9.36;49.46
85016;BME280;75339;50.216;20.512;2024-02-14T09:10:00;99501.52;;;9.19;48.89
85016;BME280;75339;50.216;20.512;2024-02-14T09:12:27;99482.15;;;8.82;48.51
85016;BME280;75339;50.216;20.512;2024-02-14T09:14:54;99498.48;;;9.10;50.40
85016;BME280;75339;50.216;20.512;2024-02-14T09:17:21;99500.73;;;9.36;49.89
85016;BME280;75339;50.216;20.512;2024-02-14T09:19:47;99498.14;;;9.09;49.77
85016;BME280;75339;50.216;20.512;2024-02-14T09:22:14;99502.39;;;8.79;51.66
85016;BME280;75339;50.216;20.512;2024-02-14T09:24:48;99504.25;;;8.54;50.94
85016;BME280;75339;50.216;20.512;2024-02-14T09:27:15;99506.06;;;8.29;51.02
85016;BME280;75339;50.216;20.512;2024-02-14T09:29:42;99504.96;;;8.51;50.14
85016;BME280;75339;50.216;20.512;2024-02-14T09:32:08;99500.54;;;9.13;49.39
85016;BME280;75339;50.216;20.512;2024-02-14T09:34:35;99499.88;;;9.48;49.20
85016;BME280;75339;50.216;20.512;2024-02-14T09:37:02;99500.11;;;9.44;47.51
85016;BME280;75339;50.216;20.512;2024-02-14T09:39:29;99498.27;;;9.13;47.81
85016;BME280;75339;50.216;20.512;2024-02-14T09:41:58;99500.27;;;8.64;48.50
85016;BME280;75339;50.216;20.512;2024-02-14T09:44:28;99506.21;;;8.51;49.36
85016;BME280;75339;50.216;20.512;2024-02-14T09:46:56;99503.07;;;9.20;48.07
85016;BME280;75339;50.216;20.512;2024-02-14T09:49:24;99499.79;;;9.98;46.21
85016;BME280;75339;50.216;20.512;2024-02-14T09:51:52;99502.14;;;10.73;46.16
85016;BME280;75339;50.216;20.512;2024-02-14T09:54:19;99498.75;;;11.79;45.16
85016;BME280;75339;50.216;20.512;2024-02-14T09:56:52;99495.24;;;12.60;41.87
85016;BME280;75339;50.216;20.512;2024-02-14T09:59:21;99494.55;;;12.67;41.07
85016;BME280;75339;50.216;20.512;2024-02-14T10:01:49;99494.88;;;12.61;40.69
85016;BME280;75339;50.216;20.512;2024-02-14T10:04:18;99496.95;;;12.23;40.93
85016;BME280;75339;50.216;20.512;2024-02-14T10:06:45;99500.54;;;11.32;41.89
85016;BME280;75339;50.216;20.512;2024-02-14T10:09:12;99496.71;;;10.88;43.01
85016;BME280;75339;50.216;20.512;2024-02-14T10:11:39;99493.56;;;11.59;42.26
85016;BME280;75339;50.216;20.512;2024-02-14T10:14:07;99484.25;;;12.62;40.96
85016;BME280;75339;50.216;20.512;2024-02-14T10:16:36;99485.07;;;13.07;39.90
85016;BME280;75339;50.216;20.512;2024-02-14T10:19:02;99479.06;;;13.54;41.04
85016;BME280;75339;50.216;20.512;2024-02-14T10:21:30;99483.11;;;13.38;41.90
85016;BME280;75339;50.216;20.512;2024-02-14T10:24:00;99478.85;;;13.09;43.45
85016;BME280;75339;50.216;20.512;2024-02-14T10:26:28;99468.43;;;13.37;40.21
85016;BME280;75339;50.216;20.512;2024-02-14T10:28:56;99468.24;;;13.82;38.92
85016;BME280;75339;50.216;20.512;2024-02-14T10:31:26;99466.64;;;13.66;37.92
85016;BME280;75339;50.216;20.512;2024-02-14T10:33:55;99460.39;;;12.93;37.57
85016;BME280;75339;50.216;20.512;2024-02-14T10:36:22;99463.30;;;12.66;38.43
85016;BME280;75339;50.216;20.512;2024-02-14T10:38:50;99463.88;;;13.13;37.10
85016;BME280;75339;50.216;20.512;2024-02-14T10:41:17;99460.24;;;13.10;36.60
85016;BME280;75339;50.216;20.512;2024-02-14T10:43:44;99461.61;;;12.69;37.03
85016;BME280;75339;50.216;20.512;2024-02-14T10:46:20;99462.27;;;12.71;37.02
85016;BME280;75339;50.216;20.512;2024-02-14T10:48:58;99468.98;;;11.76;38.49
85016;BME280;75339;50.216;20.512;2024-02-14T10:51:31;99472.02;;;10.64;41.06
85016;BME280;75339;50.216;20.512;2024-02-14T10:54:02;99476.29;;;10.24;42.08
85016;BME280;75339;50.216;20.512;2024-02-14T10:56:30;99476.31;;;10.51;42.26
85016;BME280;75339;50.216;20.512;2024-02-14T10:58:57;99466.31;;;11.31;42.54
85016;BME280;75339;50.216;20.512;2024-02-14T11:01:27;99454.55;;;12.68;40.44
85016;BME280;75339;50.216;20.512;2024-02-14T11:04:00;99450.10;;;13.30;39.72
85016;BME280;75339;50.216;20.512;2024-02-14T11:06:28;99452.85;;;13.14;41.26
85016;BME280;75339;50.216;20.512;2024-02-14T11:09:02;99449.56;;;13.06;37.50
85016;BME280;75339;50.216;20.512;2024-02-14T11:11:34;99458.39;;;12.70;38.20
85016;BME280;75339;50.216;20.512;2024-02-14T11:14:00;99450.11;;;12.31;39.19
85016;BME280;75339;50.216;20.512;2024-02-14T11:16:31;99458.04;;;11.24;40.17
85016;BME280;75339;50.216;20.512;2024-02-14T11:19:12;99458.58;;;11.15;41.09
85016;BME280;75339;50.216;20.512;2024-02-14T11:21:44;99449.65;;;11.81;40.07
85016;BME280;75339;50.216;20.512;2024-02-14T11:24:14;99446.92;;;11.98;39.50
85016;BME280;75339;50.216;20.512;2024-02-14T11:26:49;99451.04;;;11.37;41.59
85016;BME280;75339;50.216;20.512;2024-02-14T11:29:19;99445.30;;;10.70;41.64
85016;BME280;75339;50.216;20.512;2024-02-14T11:31:46;99451.58;;;10.46;42.52
85016;BME280;75339;50.216;20.512;2024-02-14T11:34:15;99443.93;;;11.39;42.21
85016;BME280;75339;50.216;20.512;2024-02-14T11:36:43;99439.23;;;12.79;39.05
85016;BME280;75339;50.216;20.512;2024-02-14T11:39:11;99432.77;;;14.09;38.86
85016;BME280;75339;50.216;20.512;2024-02-14T11:41:41;99423.93;;;15.38;37.60
85016;BME280;75339;50.216;20.512;2024-02-14T11:44:10;99419.95;;;15.97;35.83
85016;BME280;75339;50.216;20.512;2024-02-14T11:46:38;99418.94;;;15.56;34.63
85016;BME280;75339;50.216;20.512;2024-02-14T11:49:05;99425.05;;;14.58;36.65
85016;BME280;75339;50.216;20.512;2024-02-14T11:51:35;99422.96;;;14.02;39.23
85016;BME280;75339;50.216;20.512;2024-02-14T11:54:03;99415.68;;;13.86;40.35
85016;BME280;75339;50.216;20.512;2024-02-14T11:56:35;99416.04;;;13.81;40.76
85016;BME280;75339;50.216;20.512;2024-02-14T11:59:03;99415.60;;;14.20;39.33
85016;BME280;75339;50.216;20.512;2024-02-14T12:01:34;99410.75;;;14.47;37.98
85016;BME280;75339;50.216;20.512;2024-02-14T12:04:02;99411.56;;;14.49;38.60
85016;BME280;75339;50.216;20.512;2024-02-14T12:06:32;99411.41;;;14.23;38.45
85016;BME280;75339;50.216;20.512;2024-02-14T12:09:03;99407.55;;;13.32;38.42
85016;BME280;75339;50.216;20.512;2024-02-14T12:11:36;99407.58;;;12.67;39.38
85016;BME280;75339;50.216;20.512;2024-02-14T12:14:05;99408.44;;;12.18;39.67
85016;BME280;75339;50.216;20.512;2024-02-14T12:16:34;99407.19;;;12.06;40.68
85016;BME280;75339;50.216;20.512;2024-02-14T12:19:22;99408.33;;;12.02;40.44
85016;BME280;75339;50.216;20.512;2024-02-14T12:21:50;99404.57;;;11.91;40.26
85016;BME280;75339;50.216;20.512;2024-02-14T12:24:16;99387.19;;;12.01;39.54
85016;BME280;75339;50.216;20.512;2024-02-14T12:26:44;99401.67;;;12.33;39.06
85016;BME280;75339;50.216;20.512;2024-02-14T12:29:11;99400.20;;;12.54;40.12
85016;BME280;75339;50.216;20.512;2024-02-14T12:31:39;99385.86;;;12.67;39.89
85016;BME280;75339;50.216;20.512;2024-02-14T12:34:06;99402.86;;;12.66;39.27
85016;BME280;75339;50.216;20.512;2024-02-14T12:36:33;99400.67;;;12.31;39.49
85016;BME280;75339;50.216;20.512;2024-02-14T12:39:01;99405.70;;;12.02;40.51
85016;BME280;75339;50.216;20.512;2024-02-14T12:41:31;99407.23;;;11.48;40.87
85016;BME280;75339;50.216;20.512;2024-02-14T12:43:58;99406.04;;;11.08;41.38
85016;BME280;75339;50.216;20.512;2024-02-14T12:46:25;99408.73;;;10.82;43.33
85016;BME280;75339;50.216;20.512;2024-02-14T12:48:54;99411.31;;;10.60;43.63
85016;BME280;75339;50.216;20.512;2024-02-14T12:51:20;99411.30;;;10.43;43.47
85016;BME280;75339;50.216;20.512;2024-02-14T12:53:48;99411.06;;;10.39;43.65
85016;BME280;75339;50.216;20.512;2024-02-14T12:56:14;99416.00;;;10.29;43.83
85016;BME280;75339;50.216;20.512;2024-02-14T12:58:41;99413.63;;;10.13;44.50
85016;BME280;75339;50.216;20.512;2024-02-14T13:01:09;99411.36;;;10.03;44.10